createdAt,value
2022-12-07T00:00:01.255Z,8.60
2022-12-07T00:05:03.018Z,5.90
2022-12-07T00:10:04.986Z,4.33
2022-12-07T00:15:07.051Z,4.40
2022-12-07T00:20:08.855Z,7.90
2022-12-07T00:25:10.282Z,7.33
2022-12-07T00:30:11.901Z,6.67
2022-12-07T00:35:13.668Z,4.23
2022-12-07T00:40:15.206Z,7.93
2022-12-07T00:45:16.634Z,5.60
2022-12-07T00:50:18.066Z,8.80
2022-12-07T00:55:19.570Z,5.27
2022-12-07T01:00:21.137Z,8.17
2022-12-07T01:05:22.607Z,6.60
2022-12-07T01:10:24.074Z,6.53
2022-12-07T01:15:26.386Z,7.93
2022-12-07T01:20:27.837Z,4.73
2022-12-07T01:25:29.702Z,6.93
2022-12-07T01:30:31.195Z,5.23
2022-12-07T01:35:34.680Z,7.60
2022-12-07T01:40:36.150Z,5.23
2022-12-07T01:45:39.516Z,6.27
2022-12-07T01:50:41.737Z,5.00
2022-12-07T01:55:45.697Z,6.50
2022-12-07T02:00:47.239Z,4.40
2022-12-07T02:05:49.917Z,5.00
2022-12-07T02:10:51.364Z,2.93
2022-12-07T02:16:17.175Z,4.73
2022-12-07T02:21:35.603Z,4.20
2022-12-07T02:27:04.503Z,3.83
2022-12-07T02:32:17.524Z,5.50
2022-12-07T02:38:04.153Z,2.90
2022-12-07T02:43:11.551Z,4.10
2022-12-07T02:48:15.339Z,4.07
2022-12-07T02:53:39.809Z,6.40
2022-12-07T02:58:59.400Z,5.33
2022-12-07T03:04:31.780Z,4.67
2022-12-07T03:09:38.961Z,6.23
2022-12-07T03:14:46.225Z,4.00
2022-12-07T03:19:50.233Z,8.50
2022-12-07T03:24:58.325Z,8.77
2022-12-07T03:30:20.907Z,9.17
2022-12-07T03:35:35.575Z,9.03
2022-12-07T03:40:46.107Z,7.17
2022-12-07T03:46:03.754Z,6.30
2022-12-07T03:51:15.811Z,8.67
2022-12-07T03:56:17.447Z,6.83
2022-12-07T04:01:19.432Z,9.00
2022-12-07T04:06:20.949Z,9.27
2022-12-07T04:11:22.427Z,6.13
2022-12-07T04:16:24.007Z,4.10
2022-12-07T04:21:25.521Z,3.87
2022-12-07T04:26:27.573Z,10.50
2022-12-07T04:31:29.029Z,9.57
2022-12-07T04:36:31.096Z,10.20
2022-12-07T04:41:33.123Z,8.57
2022-12-07T04:46:34.613Z,17.77
2022-12-07T04:51:36.218Z,5.90
2022-12-07T04:56:38.391Z,7.57
2022-12-07T05:01:40.387Z,9.50
2022-12-07T05:06:41.885Z,14.93
2022-12-07T05:11:44.178Z,7.00
2022-12-07T05:16:48.603Z,9.30
2022-12-07T05:21:50.156Z,7.00
2022-12-07T05:26:51.601Z,11.27
2022-12-07T05:31:53.156Z,7.67
2022-12-07T05:36:54.634Z,15.50
2022-12-07T05:42:14.297Z,10.07
2022-12-07T05:47:16.325Z,9.40
2022-12-07T05:52:17.901Z,11.27
2022-12-07T05:57:19.666Z,11.17
2022-12-07T06:02:21.192Z,13.80
2022-12-07T06:07:22.738Z,15.47
2022-12-07T06:12:36.254Z,16.70
2022-12-07T06:17:37.890Z,19.43
2022-12-07T06:22:39.336Z,12.70
2022-12-07T06:27:40.924Z,5.17
2022-12-07T06:32:42.432Z,13.97
2022-12-07T06:37:43.868Z,18.77
2022-12-07T06:42:45.401Z,20.07
2022-12-07T06:47:46.879Z,14.80
2022-12-07T06:52:48.757Z,18.90
2022-12-07T06:57:50.257Z,20.10
2022-12-07T07:02:51.713Z,15.60
2022-12-07T07:08:20.666Z,19.50
2022-12-07T07:13:14.851Z,14.97
2022-12-07T07:18:16.377Z,14.80
2022-12-07T07:23:18.197Z,17.73
2022-12-07T07:28:20.179Z,16.43
2022-12-07T07:33:21.679Z,11.30
2022-12-07T07:38:23.148Z,11.43
2022-12-07T07:43:24.566Z,8.47
2022-12-07T07:48:26.266Z,7.93
2022-12-07T07:53:27.744Z,18.30
2022-12-07T07:58:29.225Z,9.97
2022-12-07T08:03:30.725Z,6.80
2022-12-07T08:08:32.820Z,5.23
2022-12-07T08:13:35.602Z,7.57
2022-12-07T08:18:38.061Z,9.10
2022-12-07T08:23:41.019Z,8.07
2022-12-07T08:28:43.093Z,3.90
2022-12-07T08:33:47.062Z,5.70
2022-12-07T08:39:22.638Z,3.10
2022-12-07T08:44:09.947Z,4.00
2022-12-07T08:49:12.812Z,3.73
2022-12-07T08:54:17.109Z,2.40
2022-12-07T08:59:18.936Z,4.30
2022-12-07T09:04:21.527Z,1.27
2022-12-07T09:09:23.182Z,1.10
2022-12-07T09:14:24.807Z,1.53
2022-12-07T09:19:26.463Z,1.30
2022-12-07T09:24:28.003Z,1.50
2022-12-07T09:29:29.451Z,3.33
2022-12-07T09:34:34.197Z,2.27
2022-12-07T09:39:35.819Z,1.90
2022-12-07T09:44:37.286Z,2.90
2022-12-07T09:49:38.797Z,1.50
2022-12-07T09:54:42.678Z,1.93
2022-12-07T09:59:44.210Z,1.83
2022-12-07T10:04:46.087Z,2.20
2022-12-07T10:09:47.627Z,1.97
2022-12-07T10:15:08.321Z,2.50
2022-12-07T10:20:17.831Z,2.30
2022-12-07T10:25:21.346Z,1.90
2022-12-07T10:30:22.801Z,2.63
2022-12-07T10:35:29.840Z,0.80
2022-12-07T10:40:34.538Z,6.83
2022-12-07T10:46:04.175Z,2.73
2022-12-07T10:51:21.321Z,3.40
2022-12-07T10:56:26.863Z,5.87
2022-12-07T11:01:34.291Z,8.33
2022-12-07T11:06:38.164Z,3.93
2022-12-07T11:12:00.974Z,3.73
2022-12-07T11:17:07.035Z,5.60
2022-12-07T11:22:21.539Z,3.67
2022-12-07T11:27:40.478Z,3.67
2022-12-07T11:33:03.985Z,4.70
2022-12-07T11:38:16.050Z,7.53
2022-12-07T11:43:33.768Z,2.07
2022-12-07T11:48:39.578Z,5.20
2022-12-07T11:53:45.339Z,5.13
2022-12-07T11:58:49.773Z,3.27
2022-12-07T12:03:57.789Z,3.07
2022-12-07T12:14:46.573Z,3.23
2022-12-07T12:20:18.834Z,4.30
2022-12-07T12:25:43.592Z,3.00
2022-12-07T12:30:45.274Z,2.37
2022-12-07T12:35:46.755Z,2.00
2022-12-07T12:40:51.034Z,4.60
2022-12-07T12:46:31.033Z,2.10
2022-12-07T12:51:43.242Z,4.63
2022-12-07T12:57:05.479Z,7.73
2022-12-07T13:02:32.168Z,3.43
2022-12-07T13:07:49.597Z,5.60
2022-12-07T13:13:00.118Z,3.20
2022-12-07T13:18:04.096Z,3.43
2022-12-07T13:23:05.898Z,6.60
2022-12-07T13:28:20.684Z,4.00
2022-12-07T13:33:22.290Z,2.20
2022-12-07T13:38:30.911Z,2.67
2022-12-07T13:43:32.567Z,6.50
2022-12-07T13:48:36.203Z,2.20
2022-12-07T13:53:51.059Z,2.10
2022-12-07T13:58:52.615Z,5.47
2022-12-07T14:03:54.154Z,4.60
2022-12-07T14:09:19.791Z,2.13
2022-12-07T14:14:30.439Z,1.67
2022-12-07T14:19:50.954Z,1.87
2022-12-07T14:25:00.688Z,6.83
2022-12-07T14:30:03.448Z,1.30
2022-12-07T14:35:13.152Z,2.77
2022-12-07T14:40:17.272Z,1.00
2022-12-07T14:45:21.074Z,5.30
2022-12-07T14:50:22.957Z,1.77
2022-12-07T14:55:26.569Z,2.07
2022-12-07T15:00:29.030Z,1.30
2022-12-07T15:05:30.555Z,3.30
2022-12-07T15:10:34.097Z,0.90
2022-12-07T15:15:35.656Z,1.30
2022-12-07T15:20:37.219Z,0.60
2022-12-07T15:25:42.172Z,3.80
2022-12-07T15:30:44.669Z,4.50
2022-12-07T15:35:46.803Z,3.03
2022-12-07T15:40:48.291Z,1.77
2022-12-07T15:45:50.892Z,3.47
2022-12-07T15:50:52.428Z,1.50
2022-12-07T15:55:53.942Z,3.33
2022-12-07T16:00:55.374Z,1.63
2022-12-07T16:05:56.805Z,1.70
2022-12-07T16:10:58.232Z,3.00
2022-12-07T16:16:11.194Z,5.20
2022-12-07T16:21:13.426Z,1.10
2022-12-07T16:26:20.799Z,1.23
2022-12-07T16:31:25.573Z,2.03
2022-12-07T16:41:53.766Z,3.90
2022-12-07T16:46:55.404Z,2.33
2022-12-07T16:52:26.011Z,0.93
2022-12-07T16:57:22.900Z,1.73
2022-12-07T17:02:25.134Z,2.97
2022-12-07T17:07:26.627Z,3.60
2022-12-07T17:12:28.113Z,1.33
2022-12-07T17:17:29.646Z,3.00
2022-12-07T17:22:31.090Z,2.30
2022-12-07T17:27:33.281Z,2.07
2022-12-07T17:32:34.814Z,2.13
2022-12-07T17:37:36.427Z,5.63
2022-12-07T17:42:38.025Z,6.40
2022-12-07T17:47:39.824Z,2.60
2022-12-07T17:52:59.997Z,4.30
2022-12-07T17:58:01.587Z,2.87
2022-12-07T18:03:03.172Z,5.23
2022-12-07T18:08:06.179Z,1.93
2022-12-07T18:13:26.333Z,4.90
2022-12-07T18:18:27.869Z,2.70
2022-12-07T18:23:29.303Z,19.33
2022-12-07T18:28:31.177Z,2.10
2022-12-07T18:33:32.654Z,4.80
2022-12-07T18:38:34.483Z,1.90
2022-12-07T18:43:35.953Z,5.30
2022-12-07T18:48:37.506Z,6.07
2022-12-07T18:53:39.030Z,1.73
2022-12-07T18:59:00.147Z,1.93
2022-12-07T19:04:02.016Z,2.60
2022-12-07T19:09:03.683Z,1.07
2022-12-07T19:14:05.179Z,3.80
2022-12-07T19:19:06.610Z,6.93
2022-12-07T19:24:08.556Z,3.70
2022-12-07T19:29:10.137Z,2.50
2022-12-07T19:34:13.089Z,1.13
2022-12-07T19:39:15.937Z,1.63
2022-12-07T19:44:19.997Z,2.30
2022-12-07T19:49:24.783Z,3.80
2022-12-07T19:54:29.502Z,5.27
2022-12-07T19:59:31.342Z,1.97
2022-12-07T20:04:35.462Z,2.70
2022-12-07T20:09:37.150Z,5.67
2022-12-07T20:14:38.855Z,2.77
2022-12-07T20:19:40.633Z,5.63
2022-12-07T20:24:42.116Z,5.37
2022-12-07T20:29:44.197Z,3.37
2022-12-07T20:34:46.825Z,2.57
2022-12-07T20:39:48.249Z,2.70
2022-12-07T20:44:49.735Z,2.50
2022-12-07T20:49:51.374Z,2.30
2022-12-07T20:54:53.229Z,3.53
2022-12-07T20:59:54.694Z,2.90
2022-12-07T21:04:59.091Z,4.30
2022-12-07T21:10:00.683Z,8.10
2022-12-07T21:15:02.539Z,2.30
2022-12-07T21:20:04.821Z,4.77
2022-12-07T21:25:06.795Z,3.87
2022-12-07T21:30:08.714Z,2.30
2022-12-07T21:35:10.281Z,2.53
2022-12-07T21:40:16.691Z,2.67
2022-12-07T21:45:18.542Z,2.80
2022-12-07T21:50:20.155Z,4.83
2022-12-07T21:55:21.675Z,2.20
2022-12-07T22:00:24.811Z,2.30
2022-12-07T22:05:26.466Z,3.27
2022-12-07T22:10:28.170Z,3.27
2022-12-07T22:15:29.784Z,3.73
2022-12-07T22:20:31.238Z,3.90
2022-12-07T22:25:33.860Z,3.80
2022-12-07T22:30:35.327Z,4.43
2022-12-07T22:35:36.769Z,11.93
2022-12-07T22:40:38.221Z,5.23
2022-12-07T22:45:39.699Z,3.13
2022-12-07T22:50:41.107Z,5.07
2022-12-07T22:55:42.691Z,5.77
2022-12-07T23:00:44.680Z,2.93
2022-12-07T23:05:48.125Z,2.40
2022-12-07T23:10:49.648Z,4.40
2022-12-07T23:15:51.134Z,2.73
2022-12-07T23:20:55.763Z,3.80
2022-12-07T23:26:05.429Z,2.43
2022-12-07T23:31:17.680Z,3.30
2022-12-07T23:36:22.395Z,3.57
2022-12-07T23:41:27.198Z,7.20
2022-12-07T23:46:30.792Z,5.10
2022-12-07T23:51:33.102Z,6.43
2022-12-07T23:56:34.627Z,4.60
